Time;durP1;ratioP1;P1;durP2;ratioP2;P2;SDS_P1;SDS_P2;PMS_P1;PMS_P2;Temp;Humidity;BMP_temperature;BMP_pressure;BME280_temperature;BME280_humidity;BME280_pressure;Samples;Min_cycle;Max_cycle;Signal;HPM_P1;HPM_P2
2023/01/12 00:00:05;;;;;;;;;;;;;;;7.07;92.86;99696.94;288157;34;5989;-78
2023/01/12 00:00:16;;;;;;;;;;;;;;;7.08;92.74;99698.66;286640;34;1666;-78
2023/01/12 00:00:26;;;;;;;;;;;;;;;7.06;92.82;99703.03;287180;34;5416;-78
2023/01/12 00:00:36;;;;;;;;;;;;;;;7.07;93.48;99702.13;287957;34;5250;-78
2023/01/12 00:00:47;;;;;;;;;;;;;;;7.07;92.99;99699.53;286622;34;1440;-78
2023/01/12 00:00:57;;;;;;;;;;;;;;;7.06;93.73;99697.84;286091;34;6643;-77
2023/01/12 00:01:07;;;;;;;;;;;;;;;7.07;93.70;99697.78;285398;34;4110;-77
2023/01/12 00:01:18;;;;;;;;;;;;;;;7.07;93.54;99696.94;283812;34;1413;-77
2023/01/12 00:01:28;;;;;;;;;;;;;;;7.07;93.15;99699.53;282067;35;1502;-78
2023/01/12 00:01:39;;;;;;;;;;;;;;;7.07;93.28;99694.34;277698;35;4488;-78
2023/01/12 00:01:49;;;;;;;;;;;;;;;7.06;93.26;99692.63;276462;35;8012;-79
2023/01/12 00:02:00;;;;;;;;;;;;;;;7.07;93.56;99694.34;278727;35;2323;-78
2023/01/12 00:02:11;;;;;;;;;;;;;;;7.07;93.65;99700.41;274625;35;8029;-78
2023/01/12 00:03:56;;;;;;;;;;;;;;;7.08;93.12;99698.66;2457559;27;19938;-77
2023/01/12 00:04:07;;;;;;;;;;;;;;;7.08;93.42;99702.09;349131;28;1244;-77
2023/01/12 00:04:17;;;;;;;;;;;;;;;7.08;92.82;99701.25;346488;28;1554;-78
2023/01/12 00:04:29;;;;;;;;;;;;;;;7.07;93.40;99696.94;345939;28;1431;-78
2023/01/12 00:04:40;;;;;;;;;;;;;;;7.07;93.21;99694.34;347960;28;1501;-78
2023/01/12 00:04:50;;;;;;;;;;;;;;;7.07;93.05;99694.34;346488;28;1447;-77
2023/01/12 00:05:00;;;;;;;;;;;;;;;7.06;93.08;99697.84;348586;28;2047;-78
2023/01/12 00:05:10;;;;;;;;;;;;;;;7.06;93.19;99698.69;344864;28;2030;-78
2023/01/12 00:05:20;;;;;;;;;;;;;;;7.07;93.19;99704.75;345164;28;1316;-77
2023/01/12 00:05:32;;;;;;;;;;;;;;;7.07;92.83;99695.19;342466;28;2139;-77
2023/01/12 00:05:42;;;;;;;;;;;;;;;7.05;92.73;99701.31;347686;28;1474;-78
2023/01/12 00:05:56;;;;;;;;;;;;;;;7.05;92.56;99701.31;346591;28;1490;-78
2023/01/12 00:06:08;;;;;;;;;;;;;;;7.04;92.86;99699.63;344881;28;1129;-78
2023/01/12 00:06:18;;;;;;;;;;;;;;;7.04;93.35;99699.63;342418;28;1531;-78
2023/01/12 00:06:28;;;;;;;;;;;;;;;7.05;92.95;99707.38;345091;28;1456;-78
2023/01/12 00:06:39;;;;;;;;;;;;;;;7.05;93.25;99704.78;346495;28;1439;-78
2023/01/12 00:06:49;;;;;;;;;;;;;;;7.04;93.21;99704.81;345134;28;884;-77
2023/01/12 00:07:00;;;;;;;;;;;;;;;7.04;93.01;99707.41;343730;28;2032;-77
2023/01/12 00:07:11;;;;;;;;;;;;;;;7.05;92.88;99704.78;339842;29;1398;-77
2023/01/12 00:07:22;;;;;;;;;;;;;;;7.06;92.70;99713.44;342370;28;1268;-78
2023/01/12 00:07:32;;;;;;;;;;;;;;;7.06;92.83;99703.88;340996;28;1504;-78
2023/01/12 00:07:42;;;;;;;;;;;;;;;7.07;93.31;99709.94;340946;28;1458;-79
2023/01/12 00:07:53;;;;;;;;;;;;;;;7.07;92.72;99707.34;341246;29;1060;-79
2023/01/12 00:08:03;;;;;;;;;;;;;;;7.08;93.22;99706.44;338373;29;1517;-79
2023/01/12 00:08:13;;;;;;;;;;;;;;;7.08;92.90;99712.50;339696;29;2043;-79
2023/01/12 00:08:23;;;;;;;;;;;;;;;7.08;92.67;99706.44;342107;28;1302;-79
2023/01/12 00:08:34;;;;;;;;;;;;;;;7.09;92.56;99713.38;341980;28;1306;-79
2023/01/12 00:08:45;;;;;;;;;;;;;;;7.09;92.93;99710.75;341975;28;1465;-78
2023/01/12 00:08:55;;;;;;;;;;;;;;;7.09;92.96;99702.97;342455;28;2046;-78
2023/01/12 00:09:06;;;;;;;;;;;;;;;7.10;92.46;99709.88;341128;29;1314;-78
2023/01/12 00:09:16;;;;;;;;;;;;;;;7.09;92.88;99706.41;341348;28;2245;-78
2023/01/12 00:09:26;;;;;;;;;;;;;;;7.10;93.05;99704.66;340991;28;1991;-78
2023/01/12 00:09:37;;;;;;;;;;;;;;;7.10;92.52;99710.72;341847;28;1127;-78
2023/01/12 00:09:47;;;;;;;;;;;;;;;7.10;92.30;99715.06;343269;28;2064;-78
2023/01/12 00:09:57;;;;;;;;;;;;;;;7.10;92.95;99707.28;343689;28;1329;-78
2023/01/12 00:10:09;;;;;;;;;;;;;;;7.09;92.60;99708.16;340999;28;1352;-78
2023/01/12 00:10:19;;;;;;;;;;;;;;;7.07;92.65;99705.59;340414;28;1103;-78
2023/01/12 00:10:29;;;;;;;;;;;;;;;7.07;93.11;99709.94;343172;28;1544;-78
2023/01/12 00:10:40;;;;;;;;;;;;;;;7.06;93.01;99709.09;344719;28;1416;-78
2023/01/12 00:10:53;;;;;;;;;;;;;;;7.06;93.12;99710.84;341634;28;1270;-78
2023/01/12 00:11:05;;;;;;;;;;;;;;;7.05;93.36;99714.34;340369;29;849;-77
2023/01/12 00:11:15;;;;;;;;;;;;;;;7.06;93.14;99710.84;343184;28;1682;-78
2023/01/12 00:11:25;;;;;;;;;;;;;;;7.07;93.00;99713.41;341113;29;1477;-78
2023/01/12 00:11:36;;;;;;;;;;;;;;;7.06;93.25;99709.09;338883;29;1217;-78
2023/01/12 00:11:46;;;;;;;;;;;;;;;7.06;92.93;99714.28;339592;28;1449;-78
2023/01/12 00:11:57;;;;;;;;;;;;;;;7.07;93.07;99710.81;340706;29;1477;-78
2023/01/12 00:12:08;;;;;;;;;;;;;;;7.06;93.18;99709.09;337271;29;1352;-78
2023/01/12 00:12:18;;;;;;;;;;;;;;;7.08;93.16;99716.84;333029;29;1452;-78
2023/01/12 00:12:28;;;;;;;;;;;;;;;7.08;93.15;99707.31;333448;29;2196;-77
2023/01/12 00:12:39;;;;;;;;;;;;;;;7.08;92.82;99711.66;332084;29;1499;-77
2023/01/12 00:12:49;;;;;;;;;;;;;;;7.08;93.12;99716.84;331855;29;1195;-77
2023/01/12 00:12:59;;;;;;;;;;;;;;;7.08;92.72;99715.13;335395;29;1455;-78
2023/01/12 00:13:09;;;;;;;;;;;;;;;7.08;92.80;99709.06;336982;29;1321;-77
2023/01/12 00:13:19;;;;;;;;;;;;;;;7.09;92.64;99718.56;335339;29;1420;-77
2023/01/12 00:13:30;;;;;;;;;;;;;;;7.09;93.09;99708.16;333322;29;1633;-77
2023/01/12 00:13:40;;;;;;;;;;;;;;;7.09;92.75;99718.56;336686;29;1955;-77
2023/01/12 00:13:51;;;;;;;;;;;;;;;7.09;92.72;99714.22;333749;29;1525;-77
2023/01/12 00:14:01;;;;;;;;;;;;;;;7.10;92.94;99715.06;332724;29;1773;-77
2023/01/12 00:14:11;;;;;;;;;;;;;;;7.09;93.02;99722.03;333276;29;1467;-77
2023/01/12 00:14:21;;;;;;;;;;;;;;;7.10;93.02;99720.28;333677;29;2003;-77
2023/01/12 00:14:32;;;;;;;;;;;;;;;7.10;92.80;99715.06;331143;29;2177;-77
2023/01/12 00:14:43;;;;;;;;;;;;;;;7.10;93.01;99717.69;333333;29;1780;-77
2023/01/12 00:14:53;;;;;;;;;;;;;;;7.10;92.51;99715.06;326914;29;2011;-77
2023/01/12 00:15:03;;;;;;;;;;;;;;;7.11;92.83;99714.19;325080;30;2111;-78
2023/01/12 00:15:14;;;;;;;;;;;;;;;7.12;92.93;99718.50;325231;30;2087;-77
2023/01/12 00:16:38;;;;;;;;;;;;;;;7.13;93.12;99720.22;317973;31;1373;-78
2023/01/12 00:16:48;;;;;;;;;;;;;;;7.13;92.93;99720.22;317130;30;2877;-77
2023/01/12 00:16:58;;;;;;;;;;;;;;;7.12;92.95;99719.34;316371;31;1605;-77
2023/01/12 00:17:10;;;;;;;;;;;;;;;7.12;92.88;99718.50;314994;31;2720;-77
2023/01/12 00:17:21;;;;;;;;;;;;;;;7.12;92.78;99721.94;314758;31;1854;-77
2023/01/12 00:17:31;;;;;;;;;;;;;;;7.13;92.87;99720.22;315071;31;2114;-79
2023/01/12 00:17:42;;;;;;;;;;;;;;;7.13;92.53;99720.22;317297;31;2051;-78
2023/01/12 00:17:52;;;;;;;;;;;;;;;7.12;92.30;99715.88;315239;31;2181;-78
2023/01/12 00:18:03;;;;;;;;;;;;;;;7.13;92.50;99722.81;312613;31;2825;-78
2023/01/12 00:18:13;;;;;;;;;;;;;;;7.14;92.83;99711.50;313846;31;2044;-78
2023/01/12 00:18:24;;;;;;;;;;;;;;;7.13;92.73;99717.59;312149;31;3042;-78
2023/01/12 00:18:34;;;;;;;;;;;;;;;7.13;92.31;99717.59;312816;31;3269;-81
2023/01/12 00:18:44;;;;;;;;;;;;;;;7.13;92.42;99717.59;312062;31;1535;-77
2023/01/12 00:18:54;;;;;;;;;;;;;;;7.13;92.79;99715.00;309350;31;3330;-77
2023/01/12 00:19:11;;;;;;;;;;;;;;;7.14;92.63;99716.72;308580;31;2956;-78
2023/01/12 00:19:21;;;;;;;;;;;;;;;7.12;92.81;99713.28;305669;32;3324;-77
2023/01/12 00:19:32;;;;;;;;;;;;;;;7.12;92.36;99721.94;305913;32;2710;-78
2023/01/12 00:19:43;;;;;;;;;;;;;;;7.12;92.57;99710.69;308445;32;1517;-78
2023/01/12 00:19:53;;;;;;;;;;;;;;;7.12;92.69;99721.09;307211;32;2170;-78
2023/01/12 00:20:05;;;;;;;;;;;;;;;7.10;92.68;99715.06;305051;32;2710;-77
2023/01/12 00:20:15;;;;;;;;;;;;;;;7.10;92.80;99717.69;303896;32;1491;-77
2023/01/12 00:20:25;;;;;;;;;;;;;;;7.08;92.74;99714.25;302982;32;3857;-77
2023/01/12 00:20:35;;;;;;;;;;;;;;;7.08;92.34;99722.06;296771;32;4174;-76
2023/01/12 00:20:46;;;;;;;;;;;;;;;7.07;92.52;99718.59;292278;33;4304;-77
2023/01/12 00:20:56;;;;;;;;;;;;;;;7.08;92.25;99716.84;291765;33;1617;-78
2023/01/12 00:21:07;;;;;;;;;;;;;;;7.07;92.26;99709.94;288919;33;4193;-77
2023/01/12 00:21:17;;;;;;;;;;;;;;;7.08;92.60;99716.84;286075;34;4416;-78
2023/01/12 00:21:27;;;;;;;;;;;;;;;7.09;92.50;99713.38;287947;34;1433;-76
2023/01/12 00:21:43;;;;;;;;;;;;;;;7.08;92.17;99717.72;290902;33;4701;-76
2023/01/12 00:22:10;;;;;;;;;;;;;;;7.10;92.17;99720.28;292056;33;2905;-76
2023/01/12 00:22:20;;;;;;;;;;;;;;;7.11;91.91;99711.59;291201;33;3892;-76
2023/01/12 00:22:31;;;;;;;;;;;;;;;7.11;92.06;99711.59;289178;34;5042;-76
2023/01/12 00:22:42;;;;;;;;;;;;;;;7.10;92.01;99720.28;284620;34;1457;-77
2023/01/12 00:22:52;;;;;;;;;;;;;;;7.11;91.86;99716.78;286203;34;6434;-78
2023/01/12 00:23:02;;;;;;;;;;;;;;;7.11;92.18;99717.63;285085;34;6565;-77
2023/01/12 00:23:12;;;;;;;;;;;;;;;7.13;92.43;99715.00;283801;34;2067;-77
2023/01/12 00:23:24;;;;;;;;;;;;;;;7.13;92.23;99715.84;281085;34;5966;-77
2023/01/12 00:23:35;;;;;;;;;;;;;;;7.14;91.77;99724.50;280816;34;5698;-77
2023/01/12 00:23:45;;;;;;;;;;;;;;;7.14;92.32;99716.72;281519;35;1482;-78
2023/01/12 00:23:55;;;;;;;;;;;;;;;7.13;92.05;99715.00;279496;35;5989;-78
2023/01/12 00:24:07;;;;;;;;;;;;;;;7.12;91.77;99718.50;278517;35;4976;-79
2023/01/12 00:24:18;;;;;;;;;;;;;;;7.13;91.82;99720.22;278665;34;4627;-78
2023/01/12 00:24:29;;;;;;;;;;;;;;;7.13;92.10;99715.00;282111;35;1295;-78
2023/01/12 00:24:40;;;;;;;;;;;;;;;7.13;91.72;99715.00;279383;35;6397;-76
2023/01/12 00:26:48;;;;;;;;;;;;;;;7.13;91.77;99730.63;2494999;27;19929;-76
2023/01/12 00:26:59;;;;;;;;;;;;;;;7.12;91.74;99718.50;354530;27;1415;-78
2023/01/12 00:27:10;;;;;;;;;;;;;;;7.13;92.03;99725.41;350649;28;1370;-77
2023/01/12 00:27:20;;;;;;;;;;;;;;;7.13;92.09;99721.06;350560;28;1346;-77
2023/01/12 00:27:30;;;;;;;;;;;;;;;7.13;92.07;99728.88;350503;28;1990;-77
2023/01/12 00:27:41;;;;;;;;;;;;;;;7.14;91.77;99732.31;349249;28;1411;-78
2023/01/12 00:27:51;;;;;;;;;;;;;;;7.14;92.19;99732.31;350650;28;871;-78
2023/01/12 00:28:01;;;;;;;;;;;;;;;7.15;91.96;99728.81;349086;28;1741;-78
2023/01/12 00:28:11;;;;;;;;;;;;;;;7.14;92.14;99722.78;348990;28;1979;-78
2023/01/12 00:28:22;;;;;;;;;;;;;;;7.14;92.17;99721.91;347880;28;1591;-77
2023/01/12 00:28:32;;;;;;;;;;;;;;;7.13;91.65;99720.22;349206;28;1447;-78
2023/01/12 00:28:42;;;;;;;;;;;;;;;7.14;91.80;99721.91;346420;28;1423;-78
2023/01/12 00:28:52;;;;;;;;;;;;;;;7.12;92.01;99721.94;347979;28;1106;-78
2023/01/12 00:29:02;;;;;;;;;;;;;;;7.12;92.11;99723.69;347742;28;1430;-77
2023/01/12 00:29:13;;;;;;;;;;;;;;;7.13;92.00;99728.00;348712;28;1419;-77
2023/01/12 00:29:24;;;;;;;;;;;;;;;7.12;91.92;99728.91;347838;28;1220;-77
2023/01/12 00:29:34;;;;;;;;;;;;;;;7.13;92.38;99725.41;347471;28;2030;-77
2023/01/12 00:29:46;;;;;;;;;;;;;;;7.12;92.00;99723.69;348107;28;1443;-79
2023/01/12 00:29:56;;;;;;;;;;;;;;;7.10;92.15;99726.34;347956;28;1407;-78
2023/01/12 00:30:07;;;;;;;;;;;;;;;7.10;92.30;99723.75;349256;28;1265;-78
2023/01/12 00:30:17;;;;;;;;;;;;;;;7.10;92.16;99726.34;347753;28;1510;-78
2023/01/12 00:30:27;;;;;;;;;;;;;;;7.10;92.04;99725.47;348398;28;1474;-78
2023/01/12 00:30:38;;;;;;;;;;;;;;;7.10;92.46;99721.13;349086;28;979;-78
2023/01/12 00:30:48;;;;;;;;;;;;;;;7.10;92.09;99720.28;348247;28;1466;-77
2023/01/12 00:30:59;;;;;;;;;;;;;;;7.09;91.77;99723.78;347500;28;1468;-77
2023/01/12 00:31:09;;;;;;;;;;;;;;;7.09;91.71;99724.63;347719;28;1424;-78
2023/01/12 00:31:19;;;;;;;;;;;;;;;7.09;91.88;99723.78;346615;28;1545;-78
2023/01/12 00:31:29;;;;;;;;;;;;;;;7.09;92.34;99728.97;348025;28;1368;-76
2023/01/12 00:31:40;;;;;;;;;;;;;;;7.09;92.26;99731.59;348003;28;844;-78
2023/01/12 00:31:51;;;;;;;;;;;;;;;7.09;92.02;99728.97;347739;28;1647;-78
2023/01/12 00:32:01;;;;;;;;;;;;;;;7.10;91.99;99725.47;346464;28;1516;-78
2023/01/12 00:32:12;;;;;;;;;;;;;;;7.10;91.71;99725.47;345769;28;1285;-78
2023/01/12 00:32:22;;;;;;;;;;;;;;;7.11;92.02;99727.19;343869;28;1362;-78
2023/01/12 00:32:32;;;;;;;;;;;;;;;7.13;92.14;99733.22;343656;28;1408;-78
2023/01/12 00:32:43;;;;;;;;;;;;;;;7.12;92.13;99728.91;341349;28;1687;-76
2023/01/12 00:32:53;;;;;;;;;;;;;;;7.13;91.78;99725.41;340376;28;936;-79
2023/01/12 00:33:03;;;;;;;;;;;;;;;7.13;92.24;99730.63;343820;28;1765;-79
2023/01/12 00:33:13;;;;;;;;;;;;;;;7.14;91.84;99725.38;346225;28;1534;-78
2023/01/12 00:33:24;;;;;;;;;;;;;;;7.14;92.00;99732.31;343526;28;1245;-78
2023/01/12 00:33:34;;;;;;;;;;;;;;;7.15;92.36;99734.03;343728;28;1498;-78
2023/01/12 00:33:45;;;;;;;;;;;;;;;7.15;92.30;99734.03;344944;28;1427;-78
2023/01/12 00:33:55;;;;;;;;;;;;;;;7.15;92.25;99728.81;345404;28;928;-78
2023/01/12 00:34:06;;;;;;;;;;;;;;;7.15;91.62;99731.44;342512;28;1500;-78
2023/01/12 00:34:16;;;;;;;;;;;;;;;7.16;92.06;99733.16;342498;28;2072;-77
2023/01/12 00:34:27;;;;;;;;;;;;;;;7.16;91.84;99735.75;342097;28;1480;-77
2023/01/12 00:34:37;;;;;;;;;;;;;;;7.16;91.78;99735.75;339586;28;1338;-77
2023/01/12 00:34:47;;;;;;;;;;;;;;;7.15;92.10;99731.44;341682;28;1511;-77
2023/01/12 00:34:58;;;;;;;;;;;;;;;7.15;91.69;99736.63;338805;29;1248;-77
2023/01/12 00:35:08;;;;;;;;;;;;;;;7.15;91.53;99736.63;336060;29;1520;-78
2023/01/12 00:35:18;;;;;;;;;;;;;;;7.16;91.83;99730.53;337572;29;1479;-78
2023/01/12 00:35:29;;;;;;;;;;;;;;;7.16;91.50;99735.75;338284;29;2002;-77
2023/01/12 00:35:39;;;;;;;;;;;;;;;7.16;91.84;99738.34;335816;29;1980;-77
2023/01/12 00:35:49;;;;;;;;;;;;;;;7.16;91.46;99735.75;338014;29;2323;-77
2023/01/12 00:36:06;;;;;;;;;;;;;;;7.16;92.10;99735.75;337105;29;1529;-77
2023/01/12 00:36:16;;;;;;;;;;;;;;;7.15;91.86;99736.63;333281;29;1543;-77
2023/01/12 00:36:26;;;;;;;;;;;;;;;7.16;91.92;99735.75;334372;29;1420;-77
2023/01/12 00:36:37;;;;;;;;;;;;;;;7.16;91.95;99735.75;333515;29;875;-77
2023/01/12 00:36:47;;;;;;;;;;;;;;;7.16;91.94;99735.75;329673;30;2075;-77
2023/01/12 00:36:58;;;;;;;;;;;;;;;7.16;91.69;99741.81;331118;29;2143;-77
2023/01/12 00:37:08;;;;;;;;;;;;;;;7.16;91.55;99735.75;332191;29;1527;-78
2023/01/12 00:37:19;;;;;;;;;;;;;;;7.17;92.03;99737.44;333232;29;2067;-77
2023/01/12 00:37:29;;;;;;;;;;;;;;;7.16;91.54;99740.94;334259;29;2102;-77
2023/01/12 00:37:39;;;;;;;;;;;;;;;7.15;91.81;99741.84;335337;29;1772;-77
2023/01/12 00:37:49;;;;;;;;;;;;;;;7.15;91.86;99739.25;333852;29;1601;-77
2023/01/12 00:38:00;;;;;;;;;;;;;;;7.14;91.22;99741.00;333198;29;1447;-77
2023/01/12 00:38:10;;;;;;;;;;;;;;;7.15;91.74;99741.84;331065;29;1205;-78
2023/01/12 00:38:20;;;;;;;;;;;;;;;7.16;91.69;99740.94;332086;29;2114;-77
2023/01/12 00:38:32;;;;;;;;;;;;;;;7.15;91.40;99740.09;333182;29;1441;-77
2023/01/12 00:38:42;;;;;;;;;;;;;;;7.15;91.72;99734.88;329214;29;1608;-77
2023/01/12 00:38:53;;;;;;;;;;;;;;;7.16;91.64;99738.34;325629;30;2185;-77
2023/01/12 00:39:03;;;;;;;;;;;;;;;7.16;91.38;99746.16;327061;30;2095;-77
2023/01/12 00:39:14;;;;;;;;;;;;;;;7.14;91.88;99738.38;327175;29;1960;-77
2023/01/12 00:39:24;;;;;;;;;;;;;;;7.15;91.35;99734.03;329201;29;2337;-77
2023/01/12 00:39:36;;;;;;;;;;;;;;;7.14;91.33;99742.72;332677;29;1443;-79
2023/01/12 00:39:46;;;;;;;;;;;;;;;7.14;91.79;99737.53;330689;29;2050;-77
2023/01/12 00:39:56;;;;;;;;;;;;;;;7.13;91.34;99735.81;329904;29;2167;-78
2023/01/12 00:40:08;;;;;;;;;;;;;;;7.13;91.74;99746.22;328824;30;2166;-80
2023/01/12 00:40:18;;;;;;;;;;;;;;;7.14;91.75;99742.72;326385;30;1252;-78
2023/01/12 00:40:29;;;;;;;;;;;;;;;7.14;92.01;99742.72;325656;30;1715;-79
2023/01/12 00:40:39;;;;;;;;;;;;;;;7.15;91.44;99744.44;325693;30;1727;-76
2023/01/12 00:40:49;;;;;;;;;;;;;;;7.14;91.95;99743.59;323301;30;1444;-76
2023/01/12 00:41:06;;;;;;;;;;;;;;;7.15;91.96;99734.03;322958;30;2484;-77
2023/01/12 00:45:20;;;;;;;;;;;;;;;7.12;91.41;99739.31;302562;32;3415;-78
2023/01/12 00:45:30;;;;;;;;;;;;;;;7.09;91.25;99739.38;296024;33;5947;-77
2023/01/12 00:45:41;;;;;;;;;;;;;;;7.09;91.26;99734.19;293131;33;6065;-77
2023/01/12 00:45:51;;;;;;;;;;;;;;;7.09;91.31;99740.25;292242;33;1496;-78
2023/01/12 00:46:03;;;;;;;;;;;;;;;7.09;91.38;99744.59;288442;33;7598;-78
2023/01/12 00:46:13;;;;;;;;;;;;;;;7.09;91.18;99744.59;289196;33;6844;-76
2023/01/12 00:46:30;;;;;;;;;;;;;;;7.08;91.84;99738.53;288707;33;6197;-76
2023/01/12 00:46:40;;;;;;;;;;;;;;;7.08;92.28;99737.69;286702;34;4809;-77
2023/01/12 00:46:50;;;;;;;;;;;;;;;7.08;91.69;99737.69;286614;34;2095;-78
2023/01/12 00:47:01;;;;;;;;;;;;;;;7.08;91.47;99740.28;284680;34;3835;-77
2023/01/12 00:47:11;;;;;;;;;;;;;;;7.08;91.36;99748.09;282859;34;3927;-77
2023/01/12 00:47:21;;;;;;;;;;;;;;;7.07;91.72;99743.78;283904;34;1615;-77
2023/01/12 00:47:32;;;;;;;;;;;;;;;7.07;91.88;99741.16;284017;34;4871;-77
2023/01/12 00:47:42;;;;;;;;;;;;;;;7.07;91.41;99742.03;281884;34;8844;-78
2023/01/12 00:49:59;;;;;;;;;;;;;;;7.09;91.06;99735.03;2499004;27;19933;-77
2023/01/12 00:50:09;;;;;;;;;;;;;;;7.09;91.59;99736.78;356187;27;875;-78
2023/01/12 00:50:19;;;;;;;;;;;;;;;7.09;91.09;99736.78;352686;28;1512;-78
2023/01/12 00:50:30;;;;;;;;;;;;;;;7.08;90.90;99738.53;353293;28;1501;-78
2023/01/12 00:50:40;;;;;;;;;;;;;;;7.09;91.16;99742.84;353931;28;1273;-77
2023/01/12 00:50:50;;;;;;;;;;;;;;;7.09;91.12;99740.25;353472;28;1306;-77
2023/01/12 00:51:03;;;;;;;;;;;;;;;7.09;91.07;99737.63;349292;28;1494;-78
2023/01/12 00:51:13;;;;;;;;;;;;;;;7.09;91.58;99742.00;350566;28;1495;-78
2023/01/12 00:51:23;;;;;;;;;;;;;;;7.09;91.47;99740.25;349277;28;1458;-77
2023/01/12 00:51:34;;;;;;;;;;;;;;;7.12;91.33;99747.13;350640;28;1496;-77
2023/01/12 00:51:44;;;;;;;;;;;;;;;7.11;91.07;99738.47;350799;28;836;-77
2023/01/12 00:51:54;;;;;;;;;;;;;;;7.10;91.08;99736.75;350505;28;1580;-76
2023/01/12 00:52:04;;;;;;;;;;;;;;;7.10;91.07;99735.88;352030;28;1460;-77
2023/01/12 00:52:16;;;;;;;;;;;;;;;7.10;91.59;99735.88;350363;28;1437;-77
2023/01/12 00:52:27;;;;;;;;;;;;;;;7.10;91.28;99735.88;349480;28;887;-75
2023/01/12 00:52:37;;;;;;;;;;;;;;;7.10;91.39;99741.09;352189;28;1812;-77
2023/01/12 00:52:48;;;;;;;;;;;;;;;7.10;91.24;99735.88;353104;28;1013;-77
2023/01/12 00:52:59;;;;;;;;;;;;;;;7.10;91.11;99735.88;348169;28;1230;-79
2023/01/12 00:53:09;;;;;;;;;;;;;;;7.09;91.50;99740.25;350607;28;1601;-77
2023/01/12 00:53:19;;;;;;;;;;;;;;;7.07;91.12;99742.03;347031;28;1235;-77
2023/01/12 00:53:30;;;;;;;;;;;;;;;7.07;91.19;99738.56;351186;28;1528;-76
2023/01/12 00:53:40;;;;;;;;;;;;;;;7.07;91.43;99741.16;350480;28;1540;-76
2023/01/12 00:53:50;;;;;;;;;;;;;;;7.07;90.95;99735.97;348424;28;1430;-76
2023/01/12 00:54:06;;;;;;;;;;;;;;;7.07;91.05;99735.97;349484;28;1450;-76
2023/01/12 00:54:17;;;;;;;;;;;;;;;7.07;91.41;99739.44;347630;28;1510;-77
2023/01/12 00:54:27;;;;;;;;;;;;;;;7.08;91.18;99735.06;346589;28;1270;-76
2023/01/12 00:54:37;;;;;;;;;;;;;;;7.08;91.16;99743.75;346119;28;1511;-76
2023/01/12 00:54:47;;;;;;;;;;;;;;;7.09;90.96;99740.25;347206;28;1458;-76
2023/01/12 00:54:58;;;;;;;;;;;;;;;7.08;91.42;99733.31;348837;28;1313;-75
2023/01/12 00:55:08;;;;;;;;;;;;;;;7.08;91.04;99740.28;348704;28;1842;-76
2023/01/12 00:55:18;;;;;;;;;;;;;;;7.08;90.95;99732.47;347175;28;1189;-75
2023/01/12 00:55:29;;;;;;;;;;;;;;;7.06;91.01;99740.31;347276;28;800;-75
2023/01/12 00:55:39;;;;;;;;;;;;;;;7.06;90.78;99736.84;346784;28;1522;-76
2023/01/12 00:55:49;;;;;;;;;;;;;;;7.04;90.90;99734.28;348542;28;1639;-76
2023/01/12 00:56:00;;;;;;;;;;;;;;;7.05;90.97;99742.97;350055;28;840;-77
2023/01/12 00:56:10;;;;;;;;;;;;;;;7.05;91.26;99740.34;350360;28;1313;-76
2023/01/12 00:56:20;;;;;;;;;;;;;;;7.06;91.07;99739.47;347656;28;1286;-76
2023/01/12 00:56:31;;;;;;;;;;;;;;;7.06;91.31;99742.06;348546;28;1462;-76
2023/01/12 00:56:41;;;;;;;;;;;;;;;7.06;91.09;99734.25;349838;28;1216;-76
2023/01/12 00:56:51;;;;;;;;;;;;;;;7.07;91.29;99735.97;348315;28;1434;-76
2023/01/12 00:57:01;;;;;;;;;;;;;;;7.06;91.36;99737.72;346995;28;1475;-76
2023/01/12 00:57:12;;;;;;;;;;;;;;;7.07;91.42;99736.81;348689;28;1282;-76
2023/01/12 00:57:22;;;;;;;;;;;;;;;7.05;90.89;99732.53;347934;28;2055;-77
2023/01/12 00:57:33;;;;;;;;;;;;;;;7.05;91.56;99740.34;349671;28;2082;-77
2023/01/12 00:57:43;;;;;;;;;;;;;;;7.04;91.04;99736.91;345736;28;1190;-77
2023/01/12 00:57:53;;;;;;;;;;;;;;;7.05;91.47;99737.75;345357;28;2071;-77
2023/01/12 00:58:04;;;;;;;;;;;;;;;7.05;91.15;99733.41;344714;28;1568;-77
2023/01/12 00:58:14;;;;;;;;;;;;;;;7.05;91.14;99737.75;345953;28;1369;-77
2023/01/12 00:58:24;;;;;;;;;;;;;;;7.06;91.65;99739.47;347354;28;1737;-77
2023/01/12 00:58:34;;;;;;;;;;;;;;;7.05;91.63;99729.94;345467;28;1694;-77
2023/01/12 00:58:45;;;;;;;;;;;;;;;7.06;91.83;99734.25;348978;28;1066;-76
2023/01/12 00:58:55;;;;;;;;;;;;;;;7.08;91.47;99742.88;345527;28;1444;-77
2023/01/12 00:59:06;;;;;;;;;;;;;;;7.07;91.47;99735.97;343858;28;1452;-77
2023/01/12 00:59:16;;;;;;;;;;;;;;;7.08;91.25;99735.06;345797;28;1097;-77
2023/01/12 00:59:26;;;;;;;;;;;;;;;7.08;91.87;99733.31;344254;28;1368;-75
2023/01/12 00:59:37;;;;;;;;;;;;;;;7.09;91.63;99734.19;344469;28;2136;-76
2023/01/12 00:59:47;;;;;;;;;;;;;;;7.09;92.06;99728.97;344616;28;1648;-76
2023/01/12 00:59:58;;;;;;;;;;;;;;;7.09;91.87;99736.78;342649;28;1467;-77
2023/01/12 01:00:09;;;;;;;;;;;;;;;7.09;92.08;99734.19;341551;28;1620;-77
2023/01/12 01:00:19;;;;;;;;;;;;;;;7.09;91.86;99740.25;338638;29;1862;-78
2023/01/12 01:00:29;;;;;;;;;;;;;;;7.09;91.67;99739.38;333273;29;1315;-78
2023/01/12 01:00:39;;;;;;;;;;;;;;;7.10;91.99;99730.69;332730;29;2095;-78
2023/01/12 01:00:50;;;;;;;;;;;;;;;7.11;91.80;99737.59;333796;29;2127;-78
2023/01/12 01:01:06;;;;;;;;;;;;;;;7.11;91.83;99732.41;337270;29;795;-78
2023/01/12 01:01:16;;;;;;;;;;;;;;;7.10;91.34;99738.50;335359;29;870;-78
2023/01/12 01:01:26;;;;;;;;;;;;;;;7.10;91.61;99733.28;329709;30;1269;-77
2023/01/12 01:01:37;;;;;;;;;;;;;;;7.10;91.42;99731.53;327587;30;2100;-77
2023/01/12 01:01:47;;;;;;;;;;;;;;;7.10;91.87;99735.88;328479;30;2016;-76
2023/01/12 01:01:57;;;;;;;;;;;;;;;7.10;91.41;99736.75;326836;29;1677;-76
2023/01/12 01:02:07;;;;;;;;;;;;;;;7.10;91.29;99735.88;325904;30;2081;-76
2023/01/12 01:02:18;;;;;;;;;;;;;;;7.09;91.63;99734.19;323408;30;1452;-75
2023/01/12 01:02:28;;;;;;;;;;;;;;;7.09;91.21;99734.19;324715;30;1340;-75
2023/01/12 01:02:38;;;;;;;;;;;;;;;7.09;91.53;99731.59;324732;30;2438;-75
2023/01/12 01:02:49;;;;;;;;;;;;;;;7.09;91.78;99728.97;325477;30;2558;-75
2023/01/12 01:02:59;;;;;;;;;;;;;;;7.09;91.69;99737.63;327247;30;863;-75
2023/01/12 01:03:09;;;;;;;;;;;;;;;7.09;91.34;99737.63;324335;30;2591;-75
2023/01/12 01:03:19;;;;;;;;;;;;;;;7.09;91.68;99729.84;324621;30;1806;-75
2023/01/12 01:03:29;;;;;;;;;;;;;;;7.10;91.44;99735.88;324752;30;1232;-77
2023/01/12 01:03:40;;;;;;;;;;;;;;;7.10;91.52;99741.94;322347;30;1510;-77
2023/01/12 01:03:50;;;;;;;;;;;;;;;7.10;91.88;99735.88;321900;30;2285;-76
2023/01/12 01:04:00;;;;;;;;;;;;;;;7.09;91.47;99732.44;320356;30;1302;-77
2023/01/12 01:04:10;;;;;;;;;;;;;;;7.10;92.10;99731.53;319230;30;2283;-77
2023/01/12 01:04:21;;;;;;;;;;;;;;;7.09;91.93;99735.03;316676;31;2864;-77
2023/01/12 01:04:33;;;;;;;;;;;;;;;7.09;91.38;99731.59;314221;31;1244;-77
2023/01/12 01:04:43;;;;;;;;;;;;;;;7.07;92.05;99733.38;313294;31;823;-76
2023/01/12 01:04:54;;;;;;;;;;;;;;;7.07;92.24;99741.16;309491;31;3472;-77
2023/01/12 01:05:04;;;;;;;;;;;;;;;7.08;91.78;99738.53;309696;31;3351;-77
2023/01/12 01:05:14;;;;;;;;;;;;;;;7.08;91.94;99742.88;311953;31;1281;-77
2023/01/12 01:05:25;;;;;;;;;;;;;;;7.08;92.15;99735.94;311355;31;3123;-76
2023/01/12 01:05:35;;;;;;;;;;;;;;;7.08;91.56;99737.69;309323;31;2588;-77
2023/01/12 01:05:45;;;;;;;;;;;;;;;7.09;91.97;99734.19;307757;32;883;-77
2023/01/12 01:06:05;;;;;;;;;;;;;;;7.09;91.58;99739.38;304413;31;2081;-77
2023/01/12 01:06:15;;;;;;;;;;;;;;;7.07;91.90;99741.16;303557;32;1019;-76
2023/01/12 01:06:25;;;;;;;;;;;;;;;7.07;91.80;99735.97;296364;32;3554;-77
2023/01/12 01:06:36;;;;;;;;;;;;;;;7.06;91.84;99737.72;295686;32;4087;-78
2023/01/12 01:06:46;;;;;;;;;;;;;;;7.06;91.74;99739.47;299291;33;1468;-78
2023/01/12 01:06:56;;;;;;;;;;;;;;;7.06;91.42;99737.72;294585;33;4420;-78
2023/01/12 01:07:07;;;;;;;;;;;;;;;7.07;91.42;99741.16;294831;33;4718;-78
2023/01/12 01:07:17;;;;;;;;;;;;;;;7.07;91.60;99735.97;294371;33;891;-78
2023/01/12 01:07:27;;;;;;;;;;;;;;;7.08;91.38;99737.69;293590;33;4027;-78
2023/01/12 01:07:37;;;;;;;;;;;;;;;7.07;91.30;99735.97;292222;33;4434;-77
2023/01/12 01:07:48;;;;;;;;;;;;;;;7.07;91.18;99735.97;292263;33;1230;-76
2023/01/12 01:07:58;;;;;;;;;;;;;;;7.07;91.14;99741.16;290401;34;2104;-76
2023/01/12 01:08:08;;;;;;;;;;;;;;;7.07;91.25;99738.56;289240;33;3254;-76
2023/01/12 01:08:18;;;;;;;;;;;;;;;7.07;91.40;99742.03;288769;33;4148;-76
2023/01/12 01:08:29;;;;;;;;;;;;;;;7.06;91.21;99736.84;292464;33;886;-76
2023/01/12 01:08:39;;;;;;;;;;;;;;;7.06;91.52;99742.06;286241;34;5975;-77
2023/01/12 01:08:49;;;;;;;;;;;;;;;7.06;91.11;99739.47;283786;34;6590;-77